KMLB

Melbourne International Airport

Melbourne, Florida, USA
METAR KMLB 272353Z 16010KT 10SM FEW009 SCT030 26/23 A2979 RMK AO2 SLP086 60008 T02560228 10283 20256 53006
Observed Flight Rules
May-27 @ 23:53 UTC (60 minutes ago) Visual Flight Rules
Wind Visibility Clouds
160° at 10 knots 10 miles
  • Few at 900' AGL
  • Scattered at 3,000' AGL
Temperatures Readings
Current 26°C / 79°F
Dewpoint 23°C / 73°F
Humidity 84%
Altimeter 29.79" Hg
Pressure 1008.6 hPa
Elevation 11
METAR KMLB 272353Z 16010KT 10SM FEW009 SCT030 26/23 A2979 RMK AO2 SLP086 60008 T02560228 10283 20256 53006
Observed Flight Rules
May-27 @ 23:53 UTC
(60 minutes ago)
VFR
Wind Visibility
160° at 10 knots 10 miles
Clouds
  • Few at 900' AGL
  • Scattered at 3,000' AGL
Temperature Dewpoint
26°C / 79°F 23°C / 73°F
Humidity Altimeter Pressure
84% 29.79" Hg 1008.6 hPa